createdAt,value
2023-02-12T00:00:20.975Z,94.30
2023-02-12T00:01:45.226Z,94.21
2023-02-12T00:02:48.111Z,94.32
2023-02-12T00:03:51.413Z,94.13
2023-02-12T00:04:54.357Z,94.30
2023-02-12T00:06:01.494Z,94.28
2023-02-12T00:07:04.407Z,94.18
2023-02-12T00:08:08.745Z,94.31
2023-02-12T00:09:11.621Z,94.23
2023-02-12T00:10:14.438Z,94.36
2023-02-12T00:11:20.626Z,94.28
2023-02-12T00:12:23.461Z,94.25
2023-02-12T00:13:26.334Z,94.30
2023-02-12T00:14:29.852Z,94.23
2023-02-12T00:15:34.454Z,94.16
2023-02-12T00:16:38.835Z,94.12
2023-02-12T00:17:41.886Z,94.13
2023-02-12T00:18:45.495Z,94.12
2023-02-12T00:19:48.956Z,94.17
2023-02-12T00:20:51.857Z,94.17
2023-02-12T00:21:54.721Z,94.14
2023-02-12T00:22:57.681Z,94.13
2023-02-12T00:24:00.553Z,94.08
2023-02-12T00:25:04.137Z,94.08
2023-02-12T00:26:12.082Z,94.21
2023-02-12T00:27:15.053Z,94.11
2023-02-12T00:28:18.114Z,94.22
2023-02-12T00:29:21.062Z,94.22
2023-02-12T00:30:23.963Z,94.12
2023-02-12T00:31:29.810Z,94.07
2023-02-12T00:32:32.726Z,94.05
2023-02-12T00:33:35.755Z,94.15
2023-02-12T00:34:38.770Z,94.15
2023-02-12T00:35:41.637Z,94.17
2023-02-12T00:36:44.504Z,94.15
2023-02-12T00:37:47.370Z,94.08
2023-02-12T00:38:52.998Z,94.20
2023-02-12T00:39:56.001Z,94.20
2023-02-12T00:40:59.092Z,94.12
2023-02-12T00:42:01.967Z,94.13
2023-02-12T00:43:06.199Z,94.09
2023-02-12T00:44:09.235Z,94.11
2023-02-12T00:45:12.082Z,94.05
2023-02-12T00:46:15.562Z,94.03
2023-02-12T00:47:19.722Z,93.96
2023-02-12T00:48:26.526Z,94.07
2023-02-12T00:49:34.780Z,93.89
2023-02-12T00:50:38.426Z,93.96
2023-02-12T00:51:42.914Z,93.84
2023-02-12T00:52:46.824Z,93.84
2023-02-12T00:53:49.858Z,93.72
2023-02-12T00:54:52.771Z,93.64
2023-02-12T00:55:56.366Z,93.62
2023-02-12T00:56:59.617Z,93.68
2023-02-12T00:58:05.875Z,93.61
2023-02-12T00:59:08.793Z,93.58
2023-02-12T01:00:14.649Z,93.64
2023-02-12T01:01:18.347Z,93.51
2023-02-12T01:02:21.424Z,93.53
2023-02-12T01:03:24.933Z,93.48
2023-02-12T01:04:28.618Z,93.43
2023-02-12T01:05:31.981Z,93.46
2023-02-12T01:06:34.887Z,93.46
2023-02-12T01:07:38.758Z,93.41
2023-02-12T01:08:41.614Z,93.47
2023-02-12T01:09:44.652Z,93.43
2023-02-12T01:10:55.185Z,93.45
2023-02-12T01:11:58.112Z,93.40
2023-02-12T01:13:01.628Z,93.47
2023-02-12T01:14:05.725Z,93.37
2023-02-12T01:15:12.980Z,93.55
2023-02-12T01:16:19.388Z,93.46
2023-02-12T01:17:22.309Z,93.56
2023-02-12T01:18:25.512Z,93.54
2023-02-12T01:19:28.684Z,93.57
2023-02-12T01:20:31.598Z,93.47
2023-02-12T01:21:35.586Z,93.52
2023-02-12T01:22:38.955Z,93.64
2023-02-12T01:23:42.958Z,93.62
2023-02-12T01:24:45.858Z,93.62
2023-02-12T01:25:48.662Z,93.56
2023-02-12T01:26:51.527Z,93.65
2023-02-12T01:27:54.573Z,93.49
2023-02-12T01:29:03.299Z,93.57
2023-02-12T01:30:08.792Z,93.50
2023-02-12T01:31:15.413Z,93.50
2023-02-12T01:32:18.538Z,93.40
2023-02-12T01:33:21.515Z,93.51
2023-02-12T01:34:24.670Z,93.51
2023-02-12T01:35:28.537Z,93.41
2023-02-12T01:36:32.337Z,93.55
2023-02-12T01:37:37.296Z,93.50
2023-02-12T01:38:40.784Z,93.56
2023-02-12T01:39:44.483Z,93.54
2023-02-12T01:40:47.356Z,93.62
2023-02-12T01:41:50.282Z,93.48
2023-02-12T01:42:53.381Z,93.62
2023-02-12T01:44:17.634Z,93.57
2023-02-12T01:45:22.119Z,93.51
2023-02-12T01:46:25.441Z,93.52
2023-02-12T01:47:28.394Z,93.49
2023-02-12T01:48:44.695Z,93.29
2023-02-12T01:49:49.098Z,93.37
2023-02-12T01:50:54.835Z,93.37
2023-02-12T01:52:26.125Z,93.36
2023-02-12T01:53:35.860Z,93.30
2023-02-12T01:54:39.214Z,93.25
2023-02-12T01:55:43.028Z,93.26
2023-02-12T01:56:46.250Z,93.26
2023-02-12T01:57:49.458Z,93.19
2023-02-12T01:58:55.760Z,93.15
2023-02-12T02:00:01.875Z,93.23
2023-02-12T02:01:08.364Z,93.19
2023-02-12T02:02:11.541Z,93.09
2023-02-12T02:03:14.915Z,93.18
2023-02-12T02:04:24.049Z,93.05
2023-02-12T02:05:38.488Z,93.01
2023-02-12T02:07:03.249Z,93.06
2023-02-12T02:08:06.367Z,93.03
2023-02-12T02:09:09.647Z,93.05
2023-02-12T02:10:12.830Z,93.02
2023-02-12T02:11:34.422Z,92.98
2023-02-12T02:12:57.066Z,93.06
2023-02-12T02:14:19.127Z,93.00
2023-02-12T02:15:25.220Z,92.93
2023-02-12T02:16:30.721Z,92.95
2023-02-12T02:17:47.252Z,93.09
2023-02-12T02:18:50.062Z,92.95
2023-02-12T02:20:11.180Z,93.03
2023-02-12T02:21:38.407Z,92.96
2023-02-12T02:22:51.000Z,92.94
2023-02-12T02:24:06.667Z,92.98
2023-02-12T02:25:30.962Z,93.01
2023-02-12T02:26:39.126Z,93.10
2023-02-12T02:27:51.199Z,93.03
2023-02-12T02:29:03.177Z,92.94
2023-02-12T02:30:47.382Z,93.04
2023-02-12T02:32:03.124Z,93.11
2023-02-12T02:33:21.318Z,92.94
2023-02-12T02:34:40.786Z,92.89
2023-02-12T02:36:00.806Z,92.96
2023-02-12T02:37:23.346Z,92.90
2023-02-12T02:38:40.527Z,92.89
2023-02-12T02:39:52.644Z,92.92
2023-02-12T02:41:12.177Z,92.94
2023-02-12T02:42:24.761Z,92.92
2023-02-12T02:43:35.596Z,92.85
2023-02-12T02:44:50.826Z,92.96
2023-02-12T02:46:12.062Z,92.87
2023-02-12T02:47:17.305Z,92.88
2023-02-12T02:48:29.477Z,92.78
2023-02-12T02:49:39.730Z,92.73
2023-02-12T02:50:49.458Z,92.85
2023-02-12T02:51:57.970Z,92.87
2023-02-12T02:53:12.605Z,92.75
2023-02-12T02:54:31.113Z,92.83
2023-02-12T02:55:43.143Z,92.88
2023-02-12T02:56:49.113Z,92.85
2023-02-12T02:58:02.713Z,92.70
2023-02-12T02:59:26.934Z,92.64
2023-02-12T03:00:44.084Z,92.67
2023-02-12T03:02:12.897Z,92.63
2023-02-12T03:03:37.190Z,92.59
2023-02-12T03:04:44.548Z,92.45
2023-02-12T03:05:50.958Z,92.59
2023-02-12T03:07:00.902Z,92.57
2023-02-12T03:08:14.533Z,92.60
2023-02-12T03:09:59.026Z,92.48
2023-02-12T03:11:09.782Z,92.53
2023-02-12T03:12:29.169Z,92.43
2023-02-12T03:13:46.489Z,92.33
2023-02-12T03:14:59.289Z,92.50
2023-02-12T03:16:09.129Z,92.50
2023-02-12T03:17:27.269Z,92.53
2023-02-12T03:18:46.043Z,92.49
2023-02-12T03:19:59.319Z,92.47
2023-02-12T03:21:09.298Z,92.48
2023-02-12T03:22:21.434Z,92.46
2023-02-12T03:23:34.448Z,92.45
2023-02-12T03:24:44.628Z,92.40
2023-02-12T03:25:57.205Z,92.52
2023-02-12T03:27:22.785Z,92.38
2023-02-12T03:28:38.423Z,92.48
2023-02-12T03:29:41.374Z,92.51
2023-02-12T03:31:15.242Z,92.44
2023-02-12T03:32:28.447Z,92.33
2023-02-12T03:33:45.066Z,92.24
2023-02-12T03:34:57.342Z,92.31
2023-02-12T03:36:07.768Z,92.28
2023-02-12T03:37:52.042Z,92.25
2023-02-12T03:38:58.337Z,92.14
2023-02-12T03:40:21.510Z,92.04
2023-02-12T03:41:37.498Z,92.04
2023-02-12T03:42:40.353Z,91.98
2023-02-12T03:44:05.539Z,92.00
2023-02-12T03:45:14.663Z,92.09
2023-02-12T03:46:24.083Z,92.01
2023-02-12T03:47:51.462Z,92.06
2023-02-12T03:49:04.691Z,92.00
2023-02-12T03:50:20.248Z,92.03
2023-02-12T03:51:38.380Z,92.07
2023-02-12T03:52:42.063Z,92.07
2023-02-12T03:53:45.455Z,92.11
2023-02-12T03:54:48.661Z,92.11
2023-02-12T03:55:57.075Z,92.08
2023-02-12T03:57:09.741Z,92.09
2023-02-12T03:58:19.326Z,92.14
2023-02-12T03:59:24.450Z,92.10
2023-02-12T04:00:28.297Z,92.08
2023-02-12T04:01:34.236Z,92.00
2023-02-12T04:02:37.316Z,91.88
2023-02-12T04:03:41.733Z,91.86
2023-02-12T04:04:46.554Z,91.99
2023-02-12T04:05:49.595Z,91.92
2023-02-12T04:06:54.068Z,92.05
2023-02-12T04:07:59.308Z,92.04
2023-02-12T04:09:09.393Z,92.15
2023-02-12T04:10:13.486Z,92.00
2023-02-12T04:11:38.145Z,92.01
2023-02-12T04:12:52.349Z,91.92
2023-02-12T04:13:58.103Z,92.06
2023-02-12T04:15:10.857Z,91.96
2023-02-12T04:16:24.179Z,91.92
2023-02-12T04:17:56.101Z,91.97
2023-02-12T04:18:59.360Z,91.98
2023-02-12T04:20:25.194Z,92.04
2023-02-12T04:21:46.998Z,91.96
2023-02-12T04:23:18.004Z,92.00
2023-02-12T04:24:52.853Z,92.04
2023-02-12T04:26:08.515Z,92.08
2023-02-12T04:27:23.084Z,91.88
2023-02-12T04:28:36.236Z,91.98
2023-02-12T04:29:57.891Z,91.95
2023-02-12T04:31:06.386Z,92.06
2023-02-12T04:32:18.487Z,92.13
2023-02-12T04:33:25.579Z,92.20
2023-02-12T04:34:35.838Z,92.28
2023-02-12T04:35:52.065Z,92.38
2023-02-12T04:37:30.836Z,92.38
2023-02-12T04:38:42.129Z,92.19
2023-02-12T04:39:46.285Z,92.21
2023-02-12T04:40:49.884Z,92.05
2023-02-12T04:41:53.055Z,91.81
2023-02-12T04:42:55.989Z,91.76
2023-02-12T04:43:58.860Z,91.72
2023-02-12T04:45:01.763Z,91.69
2023-02-12T04:46:07.349Z,91.86
2023-02-12T04:47:15.217Z,91.79
2023-02-12T04:48:18.111Z,91.82
2023-02-12T04:49:22.824Z,91.84
2023-02-12T04:50:27.119Z,91.80
2023-02-12T04:51:30.029Z,91.76
2023-02-12T04:52:32.842Z,91.79
2023-02-12T04:53:35.764Z,91.71
2023-02-12T04:54:38.819Z,91.73
2023-02-12T04:55:42.488Z,91.69
2023-02-12T04:56:46.212Z,91.75
2023-02-12T04:57:49.307Z,91.63
2023-02-12T04:58:53.752Z,91.72
2023-02-12T04:59:56.629Z,91.62
2023-02-12T05:01:00.196Z,91.72
2023-02-12T05:02:03.180Z,91.79
2023-02-12T05:03:06.454Z,91.68
2023-02-12T05:04:13.146Z,91.66
2023-02-12T05:05:16.161Z,91.64
2023-02-12T05:06:19.248Z,91.65
2023-02-12T05:07:22.178Z,91.56
2023-02-12T05:08:25.081Z,91.60
2023-02-12T05:09:28.070Z,91.56
2023-02-12T05:10:30.929Z,91.50
2023-02-12T05:11:33.815Z,91.53
2023-02-12T05:12:36.663Z,91.51
2023-02-12T05:13:39.523Z,91.49
2023-02-12T05:14:42.394Z,91.42
2023-02-12T05:15:45.332Z,91.49
2023-02-12T05:16:48.248Z,91.53
2023-02-12T05:17:51.070Z,91.46
2023-02-12T05:18:54.015Z,91.39
2023-02-12T05:19:56.883Z,91.30
2023-02-12T05:21:03.081Z,91.33
2023-02-12T05:22:05.944Z,91.53
2023-02-12T05:23:08.824Z,91.41
2023-02-12T05:24:11.695Z,91.33
2023-02-12T05:25:15.120Z,91.39
2023-02-12T05:26:20.491Z,91.41
2023-02-12T05:27:23.708Z,91.42
2023-02-12T05:28:27.698Z,91.23
2023-02-12T05:29:30.566Z,91.41
2023-02-12T05:30:33.403Z,91.47
2023-02-12T05:31:36.468Z,91.41
2023-02-12T05:32:39.508Z,91.41
2023-02-12T05:33:44.399Z,91.40
2023-02-12T05:34:47.259Z,91.43
2023-02-12T05:35:50.192Z,91.47
2023-02-12T05:36:53.087Z,91.47
2023-02-12T05:37:55.946Z,91.40
2023-02-12T05:39:02.998Z,91.31
2023-02-12T05:40:06.953Z,91.45
2023-02-12T05:41:12.346Z,91.35
2023-02-12T05:42:15.218Z,91.39
2023-02-12T05:43:18.066Z,91.35
2023-02-12T05:44:20.949Z,91.41
2023-02-12T05:45:28.105Z,91.38
2023-02-12T05:46:31.519Z,91.33
2023-02-12T05:47:34.446Z,91.24
2023-02-12T05:48:38.236Z,91.41
2023-02-12T05:49:41.247Z,91.47
2023-02-12T05:50:44.105Z,91.35
2023-02-12T05:51:46.929Z,91.30
2023-02-12T05:52:49.797Z,91.25
2023-02-12T05:54:00.139Z,91.31
2023-02-12T05:55:03.683Z,91.27
2023-02-12T05:56:16.705Z,91.30
2023-02-12T05:57:19.721Z,91.27
2023-02-12T05:58:22.556Z,91.21
2023-02-12T05:59:25.595Z,91.15
2023-02-12T06:00:28.477Z,91.16
2023-02-12T06:01:35.669Z,91.10
2023-02-12T06:02:38.623Z,91.17
2023-02-12T06:03:41.870Z,91.13
2023-02-12T06:04:46.935Z,91.13
2023-02-12T06:05:52.515Z,90.99
2023-02-12T06:06:56.385Z,91.06
2023-02-12T06:07:59.295Z,91.15
2023-02-12T06:09:03.053Z,91.18
2023-02-12T06:10:06.824Z,91.15
2023-02-12T06:11:14.038Z,91.17
2023-02-12T06:12:16.890Z,91.16
2023-02-12T06:13:19.706Z,91.28
2023-02-12T06:14:22.744Z,91.28
2023-02-12T06:15:25.641Z,91.23
2023-02-12T06:16:29.281Z,91.20
2023-02-12T06:17:34.436Z,91.12
2023-02-12T06:18:37.346Z,91.02
2023-02-12T06:19:40.228Z,91.05
2023-02-12T06:20:43.076Z,91.04
2023-02-12T06:21:46.903Z,91.05
2023-02-12T06:22:49.864Z,90.99
2023-02-12T06:23:53.433Z,91.07
2023-02-12T06:24:56.364Z,91.00
2023-02-12T06:25:59.545Z,90.99
2023-02-12T06:27:03.272Z,90.84
2023-02-12T06:28:06.208Z,90.92
2023-02-12T06:29:09.145Z,91.02
2023-02-12T06:30:12.622Z,90.98
2023-02-12T06:31:28.260Z,90.92
2023-02-12T06:32:31.240Z,90.98
2023-02-12T06:33:35.772Z,90.96
2023-02-12T06:34:38.635Z,90.96
2023-02-12T06:35:41.550Z,90.95
2023-02-12T06:36:46.057Z,90.92
2023-02-12T06:37:48.984Z,90.94
2023-02-12T06:38:52.510Z,91.07
2023-02-12T06:39:55.368Z,91.05
2023-02-12T06:41:02.272Z,91.11
2023-02-12T06:42:05.224Z,91.12
2023-02-12T06:43:08.174Z,91.24
2023-02-12T06:44:12.889Z,91.22
2023-02-12T06:45:15.899Z,91.16
2023-02-12T06:46:18.777Z,91.28
2023-02-12T06:47:22.050Z,91.32
2023-02-12T06:48:24.952Z,91.16
2023-02-12T06:49:27.892Z,91.00
2023-02-12T06:50:30.974Z,91.24
2023-02-12T06:51:33.958Z,91.30
2023-02-12T06:52:36.851Z,91.29
2023-02-12T06:53:40.619Z,91.21
2023-02-12T06:54:43.508Z,90.99
2023-02-12T06:55:46.635Z,91.03
2023-02-12T06:56:49.691Z,91.14
2023-02-12T06:57:52.513Z,91.07
2023-02-12T06:58:58.718Z,91.09
2023-02-12T07:00:01.759Z,91.23
2023-02-12T07:01:15.535Z,91.47
2023-02-12T07:02:18.406Z,91.40
2023-02-12T07:03:21.412Z,91.34
2023-02-12T07:04:24.371Z,91.36
2023-02-12T07:05:27.260Z,91.44
2023-02-12T07:06:33.658Z,91.35
2023-02-12T07:07:36.648Z,91.37
2023-02-12T07:08:39.613Z,91.36
2023-02-12T07:09:42.494Z,91.35
2023-02-12T07:10:49.126Z,91.14
2023-02-12T07:11:52.253Z,91.04
2023-02-12T07:12:55.117Z,90.94
2023-02-12T07:13:58.590Z,90.81
2023-02-12T07:15:02.169Z,90.56
2023-02-12T07:16:07.362Z,90.43
2023-02-12T07:17:10.432Z,90.73
2023-02-12T07:18:13.422Z,90.66
2023-02-12T07:19:16.930Z,90.86
2023-02-12T07:20:19.913Z,90.77
2023-02-12T07:21:22.886Z,90.90
2023-02-12T07:22:25.818Z,90.99
2023-02-12T07:23:28.791Z,90.91
2023-02-12T07:24:31.706Z,90.79
2023-02-12T07:25:35.135Z,90.83
2023-02-12T07:26:38.617Z,90.80
2023-02-12T07:27:41.848Z,90.91
2023-02-12T07:28:44.766Z,90.77
2023-02-12T07:29:47.610Z,90.77
2023-02-12T07:30:50.717Z,90.79
2023-02-12T07:31:53.589Z,90.73
2023-02-12T07:32:56.468Z,90.60
2023-02-12T07:34:00.954Z,90.51
2023-02-12T07:35:03.967Z,90.38
2023-02-12T07:36:13.531Z,90.32
2023-02-12T07:37:17.057Z,90.43
2023-02-12T07:38:19.885Z,90.13
2023-02-12T07:39:23.014Z,90.17
2023-02-12T07:40:26.019Z,89.92
2023-02-12T07:41:32.448Z,90.09
2023-02-12T07:42:35.311Z,90.32
2023-02-12T07:43:43.816Z,90.31
2023-02-12T07:44:46.651Z,90.26
2023-02-12T07:45:49.598Z,90.39
2023-02-12T07:46:52.556Z,90.30
2023-02-12T07:47:55.513Z,90.18
2023-02-12T07:49:00.668Z,90.23
2023-02-12T07:50:03.620Z,90.09
2023-02-12T07:51:09.182Z,90.07
2023-02-12T07:52:13.511Z,90.01
2023-02-12T07:53:16.548Z,90.08
2023-02-12T07:54:19.452Z,90.12
2023-02-12T07:55:22.708Z,90.18
2023-02-12T07:56:31.125Z,90.02
2023-02-12T07:57:35.290Z,90.00
2023-02-12T07:58:39.478Z,89.90
2023-02-12T07:59:42.378Z,89.90
2023-02-12T08:00:45.284Z,89.84
2023-02-12T08:01:50.509Z,89.88
2023-02-12T08:02:54.332Z,89.81
2023-02-12T08:04:03.056Z,89.88
2023-02-12T08:05:06.457Z,90.01
2023-02-12T08:06:14.289Z,89.87
2023-02-12T08:07:18.378Z,89.94
2023-02-12T08:08:21.236Z,89.92
2023-02-12T08:09:27.825Z,89.89
2023-02-12T08:10:32.400Z,89.80
2023-02-12T08:11:36.915Z,89.85
2023-02-12T08:12:39.925Z,89.84
2023-02-12T08:13:42.897Z,89.92
2023-02-12T08:14:45.893Z,89.78
2023-02-12T08:15:49.132Z,89.71
2023-02-12T08:16:52.472Z,89.81
2023-02-12T08:17:55.725Z,89.85
2023-02-12T08:19:10.763Z,89.72
2023-02-12T08:20:19.108Z,89.80
2023-02-12T08:21:27.698Z,89.76
2023-02-12T08:22:30.589Z,89.72
2023-02-12T08:23:34.326Z,89.54
2023-02-12T08:24:37.279Z,89.41
2023-02-12T08:25:40.114Z,89.31
2023-02-12T08:26:43.086Z,89.45
2023-02-12T08:27:45.965Z,89.59
2023-02-12T08:28:53.890Z,89.78
2023-02-12T08:29:56.726Z,89.68
2023-02-12T08:31:07.623Z,89.77
2023-02-12T08:32:14.133Z,89.96
2023-02-12T08:33:17.133Z,89.74
2023-02-12T08:34:22.740Z,89.59
2023-02-12T08:35:26.055Z,89.40
2023-02-12T08:36:35.144Z,89.12
2023-02-12T08:37:38.042Z,89.21
2023-02-12T08:38:42.160Z,89.22
2023-02-12T08:39:45.073Z,89.25
2023-02-12T08:40:47.928Z,89.18
2023-02-12T08:41:53.935Z,88.96
2023-02-12T08:42:56.740Z,89.38
2023-02-12T08:44:02.264Z,89.45
2023-02-12T08:45:05.539Z,89.14
2023-02-12T08:46:22.790Z,88.94
2023-02-12T08:47:25.761Z,88.81
2023-02-12T08:48:28.612Z,88.74
2023-02-12T08:49:31.531Z,88.64
2023-02-12T08:50:34.565Z,88.64
2023-02-12T08:51:39.842Z,88.49
2023-02-12T08:52:43.981Z,88.56
2023-02-12T08:53:51.797Z,88.64
2023-02-12T08:54:54.766Z,88.52
2023-02-12T08:55:57.823Z,88.76
2023-02-12T08:57:02.586Z,88.52
2023-02-12T08:58:05.446Z,88.55
2023-02-12T08:59:10.518Z,88.62
2023-02-12T09:00:13.908Z,88.58
2023-02-12T09:01:20.296Z,88.39
2023-02-12T09:02:23.223Z,88.08
2023-02-12T09:03:26.240Z,88.25
2023-02-12T09:04:29.704Z,88.34
2023-02-12T09:05:32.623Z,88.23
2023-02-12T09:06:35.879Z,88.34
2023-02-12T09:07:38.735Z,88.33
2023-02-12T09:08:41.700Z,88.20
2023-02-12T09:09:44.588Z,88.08
2023-02-12T09:10:47.579Z,87.78
2023-02-12T09:11:51.014Z,87.47
2023-02-12T09:12:53.831Z,87.54
2023-02-12T09:13:59.547Z,87.76
2023-02-12T09:15:02.845Z,87.96
2023-02-12T09:16:07.019Z,88.09
2023-02-12T09:17:09.908Z,87.88
2023-02-12T09:18:14.620Z,87.54
2023-02-12T09:19:17.664Z,87.31
2023-02-12T09:20:20.533Z,87.14
2023-02-12T09:21:23.453Z,87.23
2023-02-12T09:22:26.340Z,87.38
2023-02-12T09:23:29.416Z,87.40
2023-02-12T09:24:33.184Z,87.49
2023-02-12T09:25:43.385Z,87.30
2023-02-12T09:26:46.310Z,86.94
2023-02-12T09:27:49.219Z,86.87
2023-02-12T09:28:53.194Z,87.04
2023-02-12T09:29:56.054Z,86.97
2023-02-12T09:30:59.042Z,86.54
2023-02-12T09:32:05.590Z,86.70
2023-02-12T09:33:10.935Z,86.67
2023-02-12T09:34:14.155Z,86.99
2023-02-12T09:35:18.569Z,87.30
2023-02-12T09:36:21.590Z,87.22
2023-02-12T09:37:24.418Z,87.01
2023-02-12T09:38:27.289Z,87.36
2023-02-12T09:39:30.887Z,87.23
2023-02-12T09:40:42.974Z,86.55
2023-02-12T09:42:09.507Z,86.11
2023-02-12T09:43:12.335Z,85.96
2023-02-12T09:44:22.397Z,86.45
2023-02-12T09:45:30.418Z,86.61
2023-02-12T09:46:35.719Z,86.87
2023-02-12T09:47:50.684Z,86.65
2023-02-12T09:49:26.087Z,86.41
2023-02-12T09:50:43.707Z,86.31
2023-02-12T09:51:53.969Z,86.61
2023-02-12T09:52:59.281Z,86.45
2023-02-12T09:54:11.202Z,86.68
2023-02-12T09:55:19.604Z,86.67
2023-02-12T09:56:24.495Z,86.53
2023-02-12T09:57:33.677Z,86.35
2023-02-12T09:58:44.128Z,86.27
2023-02-12T09:59:54.179Z,86.49
2023-02-12T10:00:57.273Z,86.43
2023-02-12T10:02:00.329Z,86.46
2023-02-12T10:03:05.992Z,86.30
2023-02-12T10:04:09.169Z,86.15
2023-02-12T10:05:32.345Z,86.23
2023-02-12T10:07:04.766Z,85.93
2023-02-12T10:08:31.718Z,85.58
2023-02-12T10:10:08.648Z,85.95
2023-02-12T10:11:23.097Z,86.68
2023-02-12T10:12:48.856Z,86.39
2023-02-12T10:14:00.136Z,85.42
2023-02-12T10:15:15.146Z,85.27
2023-02-12T10:16:30.269Z,85.14
2023-02-12T10:17:49.050Z,85.45
2023-02-12T10:18:57.801Z,85.40
2023-02-12T10:20:07.912Z,85.09
2023-02-12T10:21:28.789Z,85.34
2023-02-12T10:22:56.580Z,85.33
2023-02-12T10:24:24.683Z,85.42
2023-02-12T10:25:40.265Z,85.60
2023-02-12T10:26:52.999Z,85.45
2023-02-12T10:28:00.076Z,84.80
2023-02-12T10:29:17.330Z,84.67
2023-02-12T10:30:22.915Z,84.60
2023-02-12T10:31:31.332Z,84.67
2023-02-12T10:32:36.947Z,85.07
2023-02-12T10:33:44.131Z,84.99
2023-02-12T10:34:49.762Z,84.99
2023-02-12T10:35:59.766Z,85.10
2023-02-12T10:37:21.121Z,85.08
2023-02-12T10:38:30.381Z,84.85
2023-02-12T10:39:37.819Z,85.00
2023-02-12T10:40:44.812Z,84.82
2023-02-12T10:41:56.628Z,84.66
2023-02-12T10:43:01.908Z,85.00
2023-02-12T10:44:04.930Z,85.38
2023-02-12T10:45:15.111Z,85.67
2023-02-12T10:46:18.085Z,84.98
2023-02-12T10:47:23.105Z,84.74
2023-02-12T10:48:38.194Z,84.68
2023-02-12T10:49:41.129Z,84.45
2023-02-12T10:50:50.171Z,84.42
2023-02-12T10:52:36.555Z,84.47
2023-02-12T10:53:42.881Z,84.35
2023-02-12T10:54:49.203Z,84.61
2023-02-12T10:56:06.706Z,84.58
2023-02-12T10:57:26.324Z,84.88
2023-02-12T10:58:29.810Z,84.64
2023-02-12T10:59:34.248Z,84.24
2023-02-12T11:00:38.892Z,84.46
2023-02-12T11:01:47.723Z,84.37
2023-02-12T11:03:21.700Z,84.32
2023-02-12T11:04:27.792Z,84.26
2023-02-12T11:05:35.920Z,84.29
2023-02-12T11:06:40.272Z,84.67
2023-02-12T11:07:50.434Z,84.85
2023-02-12T11:08:54.191Z,84.31
2023-02-12T11:09:57.797Z,84.37
2023-02-12T11:11:31.289Z,84.53
2023-02-12T11:12:41.013Z,84.38
2023-02-12T11:14:07.260Z,84.32
2023-02-12T11:15:19.615Z,84.52
2023-02-12T11:16:41.041Z,84.50
2023-02-12T11:17:55.058Z,84.67
2023-02-12T11:19:01.020Z,84.74
2023-02-12T11:20:16.110Z,84.85
2023-02-12T11:21:23.461Z,84.41
2023-02-12T11:22:26.465Z,84.77
2023-02-12T11:23:41.433Z,84.76
2023-02-12T11:24:46.956Z,84.59
2023-02-12T11:26:01.934Z,84.50
2023-02-12T11:27:24.355Z,84.75
2023-02-12T11:28:28.361Z,84.87
2023-02-12T11:29:33.855Z,84.71
2023-02-12T11:30:48.535Z,84.71
2023-02-12T11:32:05.020Z,84.63
2023-02-12T11:33:27.750Z,84.81
2023-02-12T11:34:30.764Z,84.71
2023-02-12T11:35:36.085Z,84.86
2023-02-12T11:36:45.508Z,84.60
2023-02-12T11:37:48.497Z,84.53
2023-02-12T11:38:59.071Z,84.22
2023-02-12T11:40:02.895Z,84.08
2023-02-12T11:41:36.599Z,83.50
2023-02-12T11:42:41.556Z,83.82
2023-02-12T11:43:45.486Z,84.34
2023-02-12T11:44:53.025Z,84.51
2023-02-12T11:45:57.191Z,84.33
2023-02-12T11:47:28.085Z,84.28
2023-02-12T11:48:38.488Z,83.91
2023-02-12T11:50:03.388Z,83.86
2023-02-12T11:51:10.151Z,83.85
2023-02-12T11:52:23.939Z,84.01
2023-02-12T11:53:42.451Z,83.97
2023-02-12T11:54:49.065Z,84.05
2023-02-12T11:56:02.102Z,83.80
2023-02-12T11:57:05.287Z,84.04
2023-02-12T11:58:23.195Z,84.17
2023-02-12T11:59:38.868Z,84.09
2023-02-12T12:01:20.279Z,84.40
2023-02-12T12:02:33.666Z,84.52
2023-02-12T12:03:58.525Z,84.82
2023-02-12T12:05:13.822Z,84.94
2023-02-12T12:06:30.539Z,84.86
2023-02-12T12:07:36.975Z,84.99
2023-02-12T12:08:59.465Z,85.11
2023-02-12T12:10:20.334Z,84.82
2023-02-12T12:11:37.347Z,84.70
2023-02-12T12:12:55.877Z,84.84
2023-02-12T12:14:19.913Z,84.77
2023-02-12T12:16:06.816Z,84.23
2023-02-12T12:17:35.715Z,84.58
2023-02-12T12:19:12.163Z,84.39
2023-02-12T12:20:22.747Z,84.48
2023-02-12T12:21:41.771Z,84.41
2023-02-12T12:23:13.639Z,84.31
2023-02-12T12:24:22.388Z,84.37
2023-02-12T12:25:27.314Z,84.49
2023-02-12T12:26:34.694Z,84.69
2023-02-12T12:28:05.840Z,84.69
2023-02-12T12:29:50.236Z,84.33
2023-02-12T12:31:12.815Z,84.61
2023-02-12T12:32:18.786Z,84.60
2023-02-12T12:33:54.664Z,84.70
2023-02-12T12:34:57.533Z,84.41
2023-02-12T12:36:37.921Z,84.69
2023-02-12T12:38:24.194Z,84.38
2023-02-12T12:39:34.944Z,84.07
2023-02-12T12:40:55.427Z,84.09
2023-02-12T12:42:28.375Z,84.12
2023-02-12T12:43:44.959Z,83.87
2023-02-12T12:44:50.438Z,83.80
2023-02-12T12:46:22.455Z,83.85
2023-02-12T12:47:56.544Z,83.85
2023-02-12T12:49:25.975Z,83.55
2023-02-12T12:50:54.684Z,83.74
2023-02-12T12:52:03.544Z,83.78
2023-02-12T12:53:21.444Z,83.78
2023-02-12T12:54:59.852Z,83.99
2023-02-12T12:56:40.674Z,84.06
2023-02-12T12:57:52.771Z,83.87
2023-02-12T12:59:33.491Z,83.71
2023-02-12T13:01:01.373Z,83.49
2023-02-12T13:02:36.746Z,83.70
2023-02-12T13:04:31.290Z,84.07
2023-02-12T13:05:40.395Z,84.17
2023-02-12T13:07:02.598Z,83.83
2023-02-12T13:08:49.921Z,83.29
2023-02-12T13:10:15.406Z,83.10
2023-02-12T13:11:39.879Z,83.32
2023-02-12T13:13:03.156Z,83.45
2023-02-12T13:14:08.606Z,83.77
2023-02-12T13:15:30.101Z,83.53
2023-02-12T13:17:01.280Z,83.47
2023-02-12T13:18:19.559Z,83.42
2023-02-12T13:19:35.387Z,83.58
2023-02-12T13:20:49.034Z,83.48
2023-02-12T13:21:58.069Z,83.61
2023-02-12T13:23:28.480Z,83.73
2023-02-12T13:24:47.743Z,83.47
2023-02-12T13:26:10.665Z,83.69
2023-02-12T13:27:26.917Z,83.51
2023-02-12T13:28:42.309Z,83.29
2023-02-12T13:29:51.683Z,83.71
2023-02-12T13:30:56.303Z,83.92
2023-02-12T13:32:04.516Z,84.06
2023-02-12T13:33:20.200Z,84.00
2023-02-12T13:34:26.616Z,84.03
2023-02-12T13:35:31.753Z,84.18
2023-02-12T13:36:38.078Z,84.20
2023-02-12T13:37:49.046Z,84.32
2023-02-12T13:39:10.410Z,84.35
2023-02-12T13:40:23.074Z,84.25
2023-02-12T13:41:27.180Z,84.54
2023-02-12T13:43:05.347Z,84.74
2023-02-12T13:44:16.661Z,84.65
2023-02-12T13:45:49.922Z,84.71
2023-02-12T13:47:00.776Z,84.85
2023-02-12T13:48:03.863Z,85.02
2023-02-12T13:49:26.238Z,85.06
2023-02-12T13:51:01.648Z,84.91
2023-02-12T13:52:39.786Z,85.09
2023-02-12T13:54:14.986Z,85.28
2023-02-12T13:55:29.316Z,85.41
2023-02-12T13:56:43.538Z,85.35
2023-02-12T13:57:46.778Z,85.49
2023-02-12T13:58:52.567Z,85.48
2023-02-12T13:59:58.305Z,85.36
2023-02-12T14:01:14.431Z,85.53
2023-02-12T14:02:38.995Z,85.60
2023-02-12T14:03:42.511Z,85.58
2023-02-12T14:04:57.343Z,85.61
2023-02-12T14:06:26.755Z,85.66
2023-02-12T14:07:43.647Z,85.81
2023-02-12T14:09:10.622Z,85.78
2023-02-12T14:10:28.446Z,85.82
2023-02-12T14:11:31.421Z,85.94
2023-02-12T14:12:38.229Z,86.04
2023-02-12T14:13:49.842Z,85.91
2023-02-12T14:14:52.663Z,86.09
2023-02-12T14:15:59.018Z,86.20
2023-02-12T14:17:33.599Z,86.14
2023-02-12T14:18:37.536Z,86.11
2023-02-12T14:19:56.358Z,86.25
2023-02-12T14:21:11.395Z,86.33
2023-02-12T14:22:34.651Z,86.38
2023-02-12T14:23:39.918Z,86.35
2023-02-12T14:24:52.522Z,86.33
2023-02-12T14:26:15.533Z,86.44
2023-02-12T14:27:33.696Z,86.29
2023-02-12T14:29:03.365Z,86.30
2023-02-12T14:30:12.226Z,86.16
2023-02-12T14:31:18.162Z,86.18
2023-02-12T14:32:50.387Z,86.14
2023-02-12T14:34:13.635Z,86.06
2023-02-12T14:35:44.036Z,86.08
2023-02-12T14:36:49.235Z,86.17
2023-02-12T14:37:54.088Z,86.20
2023-02-12T14:39:03.942Z,86.28
2023-02-12T14:40:25.660Z,86.36
2023-02-12T14:41:34.502Z,86.28
2023-02-12T14:42:37.486Z,86.49
2023-02-12T14:43:59.224Z,86.54
2023-02-12T14:45:02.741Z,86.41
2023-02-12T14:46:23.984Z,86.61
2023-02-12T14:47:29.731Z,86.56
2023-02-12T14:48:41.651Z,86.61
2023-02-12T14:49:50.141Z,86.59
2023-02-12T14:50:53.581Z,86.61
2023-02-12T14:52:02.297Z,86.63
2023-02-12T14:53:21.391Z,86.63
2023-02-12T14:54:32.359Z,86.77
2023-02-12T14:55:35.785Z,86.65
2023-02-12T14:56:48.375Z,86.64